North Haven, Mississippi
Current Conditions -  °F | °C
As of 1:53 PM on Sunday 21 Dec 2014 (Local Time) from KTUP Reporting Station
Clear Clear  
Wind Chill: 54°   Ceiling: Unl
Heat Index: 54°   Visibility: 10mi
Dew Point: 38°   Wind: 8mph
Humidity: 55%   Direction: 180°S
Pressure: 30.07"   Gusts: NA
Location:  34.4917°N, 88.9766°W
Report Text: KTUP 211953Z 18007KT 10SM CLR 12/03 A3007 RMK AO2 SLP181 T01220033
Loading
Personal Weather Stations






























Interactive Weather Map New forecast layout! Learn more

10-Day Weather Forecast

Advertisements
Track Severe Weather on mobile